Time;durP1;ratioP1;P1;durP2;ratioP2;P2;SDS_P1;SDS_P2;PMS_P1;PMS_P2;Temp;Humidity;BMP_temperature;BMP_pressure;BME280_temperature;BME280_humidity;BME280_pressure;Samples;Min_cycle;Max_cycle;Signal;HPM_P1;HPM_P2
2021/04/17 00:01:12;;;;;;;1.60;0.93;;;;;;;;;;4994883;28;20041;-60
2021/04/17 00:03:38;;;;;;;1.70;1.17;;;;;;;;;;4996004;28;20904;-61
2021/04/17 00:06:03;;;;;;;1.92;1.10;;;;;;;;;;4995053;28;20354;-60
2021/04/17 00:08:28;;;;;;;1.05;0.90;;;;;;;;;;5001060;28;20065;-61
2021/04/17 00:10:54;;;;;;;1.90;1.17;;;;;;;;;;4994112;28;20043;-60
2021/04/17 00:13:19;;;;;;;1.73;1.25;;;;;;;;;;5001031;28;20036;-60
2021/04/17 00:15:45;;;;;;;1.70;1.20;;;;;;;;;;4980148;28;20368;-57
2021/04/17 00:18:10;;;;;;;2.25;1.08;;;;;;;;;;4996158;28;20588;-58
2021/04/17 00:20:36;;;;;;;1.73;1.23;;;;;;;;;;4996366;28;20035;-59
2021/04/17 00:23:01;;;;;;;1.50;1.10;;;;;;;;;;4994972;28;20707;-59
2021/04/17 00:25:27;;;;;;;3.13;1.50;;;;;;;;;;4996159;28;20531;-58
2021/04/17 00:27:52;;;;;;;2.40;1.33;;;;;;;;;;4996389;28;20034;-59
2021/04/17 00:30:18;;;;;;;1.88;1.15;;;;;;;;;;4993387;28;20086;-59
2021/04/17 00:32:44;;;;;;;1.70;1.00;;;;;;;;;;4994909;28;20042;-59
2021/04/17 00:35:10;;;;;;;1.92;1.10;;;;;;;;;;4999679;28;20938;-60
2021/04/17 00:37:35;;;;;;;1.20;1.10;;;;;;;;;;5000588;28;20075;-59
2021/04/17 00:40:00;;;;;;;2.20;1.00;;;;;;;;;;4998257;28;20046;-59
2021/04/17 00:42:26;;;;;;;1.67;1.30;;;;;;;;;;5012759;28;20085;-59
2021/04/17 00:44:52;;;;;;;1.70;0.95;;;;;;;;;;4981776;28;20034;-59
2021/04/17 00:47:17;;;;;;;2.00;1.38;;;;;;;;;;5000071;28;20034;-59
2021/04/17 00:49:42;;;;;;;1.92;1.20;;;;;;;;;;5014546;28;20065;-58
2021/04/17 00:52:09;;;;;;;1.67;1.05;;;;;;;;;;4982148;28;20054;-59
2021/04/17 00:54:35;;;;;;;1.70;1.17;;;;;;;;;;4997104;28;20039;-60
2021/04/17 00:57:00;;;;;;;1.63;1.15;;;;;;;;;;4997203;28;20043;-59
2021/04/17 00:59:26;;;;;;;1.88;1.10;;;;;;;;;;4997966;28;20039;-59
2021/04/17 01:01:51;;;;;;;1.38;1.10;;;;;;;;;;4996597;28;20057;-59
2021/04/17 01:04:26;;;;;;;2.38;1.20;;;;;;;;;;4995826;28;20042;-59
2021/04/17 01:06:54;;;;;;;2.13;1.27;;;;;;;;;;4997747;28;20026;-59
2021/04/17 01:09:29;;;;;;;1.50;1.20;;;;;;;;;;4998456;28;20397;-59
2021/04/17 01:12:00;;;;;;;1.30;1.20;;;;;;;;;;4999232;28;20596;-59
2021/04/17 01:14:27;;;;;;;2.30;1.33;;;;;;;;;;4997230;28;20035;-59
2021/04/17 01:16:52;;;;;;;1.65;1.17;;;;;;;;;;5004656;28;20117;-59
2021/04/17 01:19:34;;;;;;;2.85;1.10;;;;;;;;;;4998836;28;20158;-60
2021/04/17 01:22:00;;;;;;;;;;;;;;;;;;4997014;28;20057;-59
2021/04/17 01:24:25;;;;;;;2.13;1.20;;;;;;;;;;4997278;28;19918;-58
2021/04/17 01:26:50;;;;;;;2.35;1.20;;;;;;;;;;4987584;28;20034;-61
2021/04/17 01:29:16;;;;;;;1.65;1.10;;;;;;;;;;4987782;28;20428;-59
2021/04/17 01:31:42;;;;;;;1.70;1.20;;;;;;;;;;4997772;28;20065;-59
2021/04/17 01:34:07;;;;;;;1.65;1.10;;;;;;;;;;4996425;28;20035;-59
2021/04/17 01:36:35;;;;;;;3.33;1.20;;;;;;;;;;4999135;28;20106;-60
2021/04/17 01:39:11;;;;;;;2.22;1.30;;;;;;;;;;4986215;28;20098;-59
2021/04/17 01:41:40;;;;;;;1.35;1.23;;;;;;;;;;5006528;28;20049;-59
2021/04/17 01:44:11;;;;;;;1.98;1.27;;;;;;;;;;4993437;28;20045;-60
2021/04/17 01:46:43;;;;;;;1.92;1.35;;;;;;;;;;5005248;28;20040;-58
2021/04/17 01:49:10;;;;;;;2.60;1.40;;;;;;;;;;4986960;28;20839;-60
2021/04/17 01:51:36;;;;;;;1.70;1.38;;;;;;;;;;5003676;28;20548;-60
2021/04/17 01:54:06;;;;;;;2.50;1.30;;;;;;;;;;5002664;28;20026;-59
2021/04/17 01:56:31;;;;;;;2.40;1.30;;;;;;;;;;4997544;28;20456;-59
2021/04/17 01:58:57;;;;;;;2.33;1.15;;;;;;;;;;4996804;28;20031;-59
2021/04/17 02:01:22;;;;;;;1.60;1.40;;;;;;;;;;4979224;28;20073;-60
2021/04/17 02:03:48;;;;;;;1.30;1.00;;;;;;;;;;4987349;28;20042;-60
2021/04/17 02:06:13;;;;;;;1.73;1.30;;;;;;;;;;4998225;28;20039;-59
2021/04/17 02:08:39;;;;;;;2.08;1.38;;;;;;;;;;4997745;28;20061;-59
2021/04/17 02:11:05;;;;;;;2.05;1.17;;;;;;;;;;4997466;28;20097;-59
2021/04/17 02:13:30;;;;;;;2.10;1.30;;;;;;;;;;4997165;28;20069;-60
2021/04/17 02:16:00;;;;;;;1.90;1.30;;;;;;;;;;4996100;28;20030;-59
2021/04/17 02:18:32;;;;;;;2.42;1.40;;;;;;;;;;4999237;28;20045;-60
2021/04/17 02:21:02;;;;;;;2.10;1.33;;;;;;;;;;4997622;28;21278;-58
2021/04/17 02:23:28;;;;;;;2.05;1.38;;;;;;;;;;4996281;28;20045;-59
2021/04/17 02:25:55;;;;;;;2.15;1.23;;;;;;;;;;4984964;28;20041;-58
2021/04/17 02:28:21;;;;;;;2.33;1.50;;;;;;;;;;4970394;28;20038;-63
2021/04/17 02:30:46;;;;;;;2.00;1.45;;;;;;;;;;4986227;28;20449;-59
2021/04/17 02:33:12;;;;;;;2.05;1.10;;;;;;;;;;4997484;28;20027;-60
2021/04/17 02:35:37;;;;;;;2.17;1.35;;;;;;;;;;4995470;28;20499;-60
2021/04/17 02:38:03;;;;;;;3.05;1.30;;;;;;;;;;4996075;28;20038;-59
2021/04/17 02:40:28;;;;;;;2.15;1.17;;;;;;;;;;4997875;28;20046;-59
2021/04/17 02:42:54;;;;;;;2.88;1.27;;;;;;;;;;4996160;28;20123;-59
2021/04/17 02:45:19;;;;;;;2.88;1.35;;;;;;;;;;4996419;28;20043;-59
2021/04/17 02:47:45;;;;;;;1.27;1.10;;;;;;;;;;4998140;28;20033;-59
2021/04/17 02:50:10;;;;;;;3.13;1.25;;;;;;;;;;5002302;28;20046;-59
2021/04/17 02:52:36;;;;;;;1.52;1.10;;;;;;;;;;4997388;28;20044;-58
2021/04/17 02:55:02;;;;;;;2.60;1.25;;;;;;;;;;4995916;28;20097;-58
2021/04/17 02:57:27;;;;;;;3.15;1.30;;;;;;;;;;4997707;28;20437;-61
2021/04/17 02:59:53;;;;;;;2.33;1.30;;;;;;;;;;4997601;28;20039;-60
2021/04/17 03:02:18;;;;;;;1.45;1.05;;;;;;;;;;4998984;28;21243;-59
2021/04/17 03:04:43;;;;;;;1.80;1.40;;;;;;;;;;4996350;28;20536;-60
2021/04/17 03:07:09;;;;;;;2.00;1.25;;;;;;;;;;4998017;28;20463;-59
2021/04/17 03:09:34;;;;;;;2.08;1.20;;;;;;;;;;5012520;28;20129;-59
2021/04/17 03:12:00;;;;;;;2.05;1.15;;;;;;;;;;5011190;28;20043;-59
2021/04/17 03:14:25;;;;;;;2.72;1.05;;;;;;;;;;4997716;28;20030;-60
2021/04/17 03:16:51;;;;;;;2.05;1.25;;;;;;;;;;4996197;28;20039;-60
2021/04/17 03:19:16;;;;;;;1.75;1.10;;;;;;;;;;4997850;28;20039;-59
2021/04/17 03:21:42;;;;;;;2.20;1.30;;;;;;;;;;4994321;28;20036;-60
2021/04/17 03:24:07;;;;;;;2.00;1.20;;;;;;;;;;5001628;28;20085;-59
2021/04/17 03:26:33;;;;;;;2.05;1.40;;;;;;;;;;5002141;28;20569;-59
2021/04/17 03:28:58;;;;;;;2.13;1.30;;;;;;;;;;4999210;28;20631;-59
2021/04/17 03:31:24;;;;;;;2.10;1.20;;;;;;;;;;4996280;28;20806;-60
2021/04/17 03:33:49;;;;;;;2.38;1.48;;;;;;;;;;4995451;28;20041;-60
2021/04/17 03:36:15;;;;;;;2.28;1.25;;;;;;;;;;4996656;28;20615;-59
2021/04/17 03:38:40;;;;;;;2.60;1.60;;;;;;;;;;4997456;28;20084;-59
2021/04/17 03:41:06;;;;;;;1.85;1.20;;;;;;;;;;4994885;28;20054;-59
2021/04/17 03:43:31;;;;;;;2.22;1.25;;;;;;;;;;4984661;28;20026;-59
2021/04/17 03:45:56;;;;;;;1.77;1.17;;;;;;;;;;4995058;28;20034;-59
2021/04/17 03:48:22;;;;;;;2.28;1.20;;;;;;;;;;4996896;28;20061;-60
2021/04/17 03:50:48;;;;;;;1.02;0.93;;;;;;;;;;4997352;28;20050;-58
2021/04/17 03:53:13;;;;;;;1.30;1.00;;;;;;;;;;5010042;28;20035;-58
2021/04/17 03:55:39;;;;;;;2.53;1.15;;;;;;;;;;4996416;28;20026;-59
2021/04/17 03:58:04;;;;;;;1.77;1.40;;;;;;;;;;4997339;28;20072;-60
2021/04/17 04:00:30;;;;;;;1.70;1.13;;;;;;;;;;4995453;28;20047;-60
2021/04/17 04:02:56;;;;;;;2.33;1.50;;;;;;;;;;4996955;28;20023;-60
2021/04/17 04:05:21;;;;;;;2.55;1.50;;;;;;;;;;4994613;28;20092;-60
2021/04/17 04:07:46;;;;;;;3.20;1.27;;;;;;;;;;4996916;28;20121;-59
2021/04/17 04:10:12;;;;;;;2.80;1.52;;;;;;;;;;5000293;28;20041;-61
2021/04/17 04:12:39;;;;;;;2.55;1.40;;;;;;;;;;5000748;28;20023;-59
2021/04/17 04:15:05;;;;;;;2.08;1.50;;;;;;;;;;5000992;28;20412;-59
2021/04/17 04:17:31;;;;;;;2.78;1.55;;;;;;;;;;4996567;28;20039;-58
2021/04/17 04:19:56;;;;;;;2.90;1.33;;;;;;;;;;4980764;28;20042;-59
2021/04/17 04:22:22;;;;;;;1.95;1.40;;;;;;;;;;4958550;28;21052;-58
2021/04/17 04:24:47;;;;;;;2.03;1.30;;;;;;;;;;4998244;28;20092;-58
2021/04/17 04:27:13;;;;;;;1.52;1.30;;;;;;;;;;5000792;28;20717;-59
2021/04/17 04:29:38;;;;;;;1.17;1.08;;;;;;;;;;5002447;28;20045;-59
2021/04/17 04:32:04;;;;;;;2.38;1.13;;;;;;;;;;4989237;28;20026;-57
2021/04/17 04:34:30;;;;;;;2.00;1.38;;;;;;;;;;4999176;28;20045;-59
2021/04/17 04:36:55;;;;;;;2.42;1.45;;;;;;;;;;5000267;28;20026;-59
2021/04/17 04:39:21;;;;;;;1.80;1.30;;;;;;;;;;4999839;28;20787;-59
2021/04/17 04:41:46;;;;;;;2.25;1.30;;;;;;;;;;5015198;28;20065;-58
2021/04/17 04:44:12;;;;;;;2.28;1.33;;;;;;;;;;5001297;28;20038;-60
2021/04/17 04:46:37;;;;;;;2.53;1.30;;;;;;;;;;4998607;28;20073;-59
2021/04/17 04:49:03;;;;;;;2.42;1.42;;;;;;;;;;4997450;28;20038;-59
2021/04/17 04:51:28;;;;;;;2.00;1.30;;;;;;;;;;5000341;28;20444;-59
2021/04/17 04:53:54;;;;;;;2.50;1.40;;;;;;;;;;4998342;28;20042;-59
2021/04/17 04:56:20;;;;;;;1.65;1.23;;;;;;;;;;4996489;28;20034;-59
2021/04/17 04:58:45;;;;;;;2.03;1.30;;;;;;;;;;4997610;28;20113;-59
2021/04/17 05:01:12;;;;;;;2.53;1.50;;;;;;;;;;4997730;28;20070;-58
2021/04/17 05:03:37;;;;;;;2.40;1.50;;;;;;;;;;4998034;28;20027;-60
2021/04/17 05:06:03;;;;;;;3.22;2.22;;;;;;;;;;4996463;28;20030;-59
2021/04/17 05:08:28;;;;;;;3.75;2.22;;;;;;;;;;4998509;28;20041;-60
2021/04/17 05:10:54;;;;;;;3.00;1.73;;;;;;;;;;4999518;28;20034;-59
2021/04/17 05:13:19;;;;;;;3.03;1.85;;;;;;;;;;5003549;28;20552;-59
2021/04/17 05:15:44;;;;;;;2.17;1.60;;;;;;;;;;4999177;28;20030;-58
2021/04/17 05:18:10;;;;;;;2.75;1.70;;;;;;;;;;4997084;28;20030;-59
2021/04/17 05:20:36;;;;;;;2.10;1.42;;;;;;;;;;4996141;28;20057;-59
2021/04/17 05:23:01;;;;;;;3.00;1.70;;;;;;;;;;4996677;28;20037;-59
2021/04/17 05:25:27;;;;;;;3.85;2.42;;;;;;;;;;4997159;28;20058;-59
2021/04/17 05:27:52;;;;;;;5.18;3.75;;;;;;;;;;5000137;28;20444;-59
2021/04/17 05:30:18;;;;;;;5.32;3.83;;;;;;;;;;4997993;28;20042;-59
2021/04/17 05:32:43;;;;;;;4.45;3.00;;;;;;;;;;4997130;28;20162;-59
2021/04/17 05:35:10;;;;;;;4.32;2.55;;;;;;;;;;4995733;28;20035;-60
2021/04/17 05:37:35;;;;;;;3.47;1.95;;;;;;;;;;5004216;28;20044;-60
2021/04/17 05:40:01;;;;;;;3.50;2.70;;;;;;;;;;4997359;28;20057;-60
2021/04/17 05:42:26;;;;;;;4.38;2.90;;;;;;;;;;4998431;28;20039;-59
2021/04/17 05:44:52;;;;;;;3.13;2.28;;;;;;;;;;4996122;28;20027;-59
2021/04/17 05:47:17;;;;;;;3.15;2.28;;;;;;;;;;4997148;28;20097;-59
2021/04/17 05:49:43;;;;;;;2.80;1.65;;;;;;;;;;4997048;28;20034;-60
2021/04/17 05:52:08;;;;;;;2.97;1.63;;;;;;;;;;4998015;28;20085;-58
2021/04/17 05:54:34;;;;;;;1.95;1.58;;;;;;;;;;5000857;28;20050;-58
2021/04/17 05:56:59;;;;;;;2.22;1.60;;;;;;;;;;4998194;28;20030;-59
2021/04/17 05:59:25;;;;;;;2.42;1.80;;;;;;;;;;4998335;28;20121;-60
2021/04/17 06:01:50;;;;;;;3.70;1.98;;;;;;;;;;4997765;28;20051;-60
2021/04/17 06:04:15;;;;;;;3.42;1.80;;;;;;;;;;4995512;28;20479;-59
2021/04/17 06:06:41;;;;;;;2.40;1.83;;;;;;;;;;4996340;28;20034;-59
2021/04/17 06:09:06;;;;;;;3.75;1.90;;;;;;;;;;4995093;28;20638;-59
2021/04/17 06:11:32;;;;;;;3.58;1.83;;;;;;;;;;4997920;28;20037;-60
2021/04/17 06:13:57;;;;;;;2.80;1.98;;;;;;;;;;4997408;28;20093;-59
2021/04/17 06:16:23;;;;;;;3.33;1.70;;;;;;;;;;4998747;28;20026;-60
2021/04/17 06:18:48;;;;;;;3.58;2.10;;;;;;;;;;4996443;28;20976;-59
2021/04/17 06:21:14;;;;;;;4.05;2.00;;;;;;;;;;5002727;28;20045;-59
2021/04/17 06:23:40;;;;;;;3.00;2.00;;;;;;;;;;5013318;28;20034;-60
2021/04/17 06:26:05;;;;;;;3.45;1.98;;;;;;;;;;4997846;28;20082;-59
2021/04/17 06:28:31;;;;;;;3.60;1.85;;;;;;;;;;4997224;28;20046;-59
2021/04/17 06:30:57;;;;;;;3.65;2.00;;;;;;;;;;4995147;28;20034;-60
2021/04/17 06:33:23;;;;;;;4.13;2.10;;;;;;;;;;4996841;28;20667;-60
2021/04/17 06:35:48;;;;;;;2.58;1.70;;;;;;;;;;4997399;28;20049;-60
2021/04/17 06:38:15;;;;;;;4.30;2.15;;;;;;;;;;4997953;28;20029;-59
2021/04/17 06:40:41;;;;;;;4.30;2.15;;;;;;;;;;4995549;28;20043;-59
2021/04/17 06:43:06;;;;;;;3.67;2.35;;;;;;;;;;4995081;28;20018;-60
2021/04/17 06:45:37;;;;;;;4.85;3.00;;;;;;;;;;4995838;28;20496;-60
2021/04/17 06:48:09;;;;;;;3.67;2.30;;;;;;;;;;4997658;28;20038;-60
2021/04/17 06:50:35;;;;;;;2.97;1.90;;;;;;;;;;4985196;28;20045;-59
2021/04/17 06:53:08;;;;;;;3.85;2.30;;;;;;;;;;4995108;28;20038;-59
2021/04/17 06:55:34;;;;;;;4.10;2.40;;;;;;;;;;4995119;28;20564;-60
2021/04/17 06:58:00;;;;;;;4.72;2.30;;;;;;;;;;4995675;28;20060;-60
2021/04/17 07:00:25;;;;;;;4.40;2.30;;;;;;;;;;4996022;28;20047;-61
2021/04/17 07:02:51;;;;;;;4.15;2.00;;;;;;;;;;4997123;28;20030;-59
2021/04/17 07:05:17;;;;;;;3.55;2.10;;;;;;;;;;4996271;28;20039;-63
2021/04/17 07:07:42;;;;;;;3.60;1.88;;;;;;;;;;4994993;28;20531;-59
2021/04/17 07:10:08;;;;;;;3.80;2.05;;;;;;;;;;5002728;28;20161;-59
2021/04/17 07:12:34;;;;;;;3.85;1.90;;;;;;;;;;4996451;28;20022;-60
2021/04/17 07:15:06;;;;;;;4.22;2.30;;;;;;;;;;4999770;28;20038;-60
2021/04/17 07:17:33;;;;;;;3.90;2.08;;;;;;;;;;4995884;28;20035;-60
2021/04/17 07:20:00;;;;;;;2.58;2.00;;;;;;;;;;4994619;28;20417;-59
2021/04/17 07:22:32;;;;;;;3.35;2.00;;;;;;;;;;4985520;28;20088;-59
2021/04/17 07:25:07;;;;;;;4.85;1.90;;;;;;;;;;4978611;28;20551;-59
2021/04/17 07:27:39;;;;;;;3.08;1.83;;;;;;;;;;4985637;28;20165;-60
2021/04/17 07:30:05;;;;;;;3.35;2.15;;;;;;;;;;4997980;28;20031;-58
2021/04/17 07:32:30;;;;;;;3.95;2.35;;;;;;;;;;4997068;28;20042;-60
2021/04/17 07:35:10;;;;;;;4.07;2.47;;;;;;;;;;4996440;28;20034;-59
2021/04/17 07:37:37;;;;;;;2.92;2.00;;;;;;;;;;4995623;28;20499;-59
2021/04/17 07:40:23;;;;;;;3.45;2.05;;;;;;;;;;4995612;28;20823;-59
2021/04/17 07:42:54;;;;;;;2.97;2.00;;;;;;;;;;4996513;28;20056;-59
2021/04/17 07:45:37;;;;;;;2.85;2.13;;;;;;;;;;4994769;28;20034;-59
2021/04/17 07:48:25;;;;;;;3.05;1.83;;;;;;;;;;4996513;28;20038;-59
2021/04/17 07:50:50;;;;;;;3.58;2.20;;;;;;;;;;4988647;28;20031;-59
2021/04/17 07:53:28;;;;;;;3.15;2.03;;;;;;;;;;4997742;28;20026;-58
2021/04/17 07:55:53;;;;;;;3.97;2.22;;;;;;;;;;4994011;28;20748;-59
2021/04/17 07:58:19;;;;;;;3.63;2.60;;;;;;;;;;4996217;28;20034;-59
2021/04/17 08:00:44;;;;;;;5.35;2.50;;;;;;;;;;4984144;28;20548;-59
2021/04/17 08:03:10;;;;;;;4.43;2.67;;;;;;;;;;5000920;28;20773;-59
2021/04/17 08:05:35;;;;;;;3.97;2.38;;;;;;;;;;4992887;28;20042;-60
2021/04/17 08:08:01;;;;;;;3.67;2.33;;;;;;;;;;4993285;28;20075;-60
2021/04/17 08:10:26;;;;;;;3.72;1.90;;;;;;;;;;4997556;28;20524;-59
2021/04/17 08:12:52;;;;;;;3.78;2.45;;;;;;;;;;4996317;28;20268;-59
2021/04/17 08:15:20;;;;;;;3.40;2.10;;;;;;;;;;4984804;28;20042;-60
2021/04/17 08:17:46;;;;;;;3.17;2.00;;;;;;;;;;4984891;28;20545;-60
2021/04/17 08:20:14;;;;;;;3.97;2.10;;;;;;;;;;4995961;28;20035;-59
2021/04/17 08:22:39;;;;;;;3.55;2.10;;;;;;;;;;4997324;28;20491;-60
2021/04/17 08:25:06;;;;;;;3.70;2.00;;;;;;;;;;4996076;28;20035;-59
2021/04/17 08:27:31;;;;;;;3.60;2.38;;;;;;;;;;4998299;28;20640;-60
2021/04/17 08:29:57;;;;;;;4.05;2.33;;;;;;;;;;5000662;28;20088;-59
2021/04/17 08:32:32;;;;;;;3.75;2.00;;;;;;;;;;4995633;28;20852;-59
2021/04/17 08:35:14;;;;;;;3.53;2.10;;;;;;;;;;4996110;28;20046;-58
2021/04/17 08:37:55;;;;;;;3.50;2.30;;;;;;;;;;4995238;28;20058;-58
2021/04/17 08:40:36;;;;;;;3.05;2.20;;;;;;;;;;4993477;28;20042;-59
2021/04/17 08:43:02;;;;;;;3.47;2.33;;;;;;;;;;4995106;28;20478;-57
2021/04/17 08:45:28;;;;;;;3.60;2.08;;;;;;;;;;4998133;28;20485;-56
2021/04/17 08:48:00;;;;;;;3.75;2.40;;;;;;;;;;4993666;28;20030;-58
2021/04/17 08:50:31;;;;;;;3.30;2.10;;;;;;;;;;5004770;28;20121;-60
2021/04/17 08:52:57;;;;;;;3.45;2.30;;;;;;;;;;4996472;28;20050;-57
2021/04/17 08:55:24;;;;;;;3.03;2.10;;;;;;;;;;4997459;28;20031;-58
2021/04/17 08:58:12;;;;;;;4.13;2.38;;;;;;;;;;4987167;28;20420;-63
2021/04/17 09:01:02;;;;;;;4.10;2.33;;;;;;;;;;4996215;28;20049;-63
2021/04/17 09:03:38;;;;;;;3.53;2.20;;;;;;;;;;4998580;28;21227;-64
2021/04/17 09:06:05;;;;;;;4.22;2.35;;;;;;;;;;4998708;28;20126;-64
2021/04/17 09:08:30;;;;;;;3.30;2.00;;;;;;;;;;5004565;28;20043;-69
2021/04/17 09:10:56;;;;;;;3.85;2.20;;;;;;;;;;4998118;28;20038;-60
2021/04/17 09:13:25;;;;;;;4.13;2.50;;;;;;;;;;4999580;28;20031;-58
2021/04/17 09:15:53;;;;;;;3.72;2.22;;;;;;;;;;4998872;28;20135;-58
2021/04/17 09:18:37;;;;;;;4.22;2.35;;;;;;;;;;4999706;28;20101;-58
2021/04/17 09:21:22;;;;;;;4.45;2.50;;;;;;;;;;4997902;28;20505;-57
2021/04/17 09:23:50;;;;;;;2.83;2.00;;;;;;;;;;4998733;28;20038;-58
2021/04/17 09:26:31;;;;;;;3.83;2.47;;;;;;;;;;4997285;28;20027;-57
2021/04/17 09:28:58;;;;;;;4.90;2.65;;;;;;;;;;4998519;28;20109;-58
2021/04/17 09:31:24;;;;;;;4.60;2.80;;;;;;;;;;5004417;28;20026;-58
2021/04/17 09:34:03;;;;;;;5.70;3.00;;;;;;;;;;4986713;28;20034;-58
2021/04/17 09:36:29;;;;;;;4.65;2.90;;;;;;;;;;4996078;28;20522;-58
2021/04/17 09:38:54;;;;;;;5.10;3.20;;;;;;;;;;5000979;28;20676;-61
2021/04/17 09:41:19;;;;;;;7.32;3.97;;;;;;;;;;4980777;28;20050;-60
2021/04/17 09:43:56;;;;;;;7.65;4.32;;;;;;;;;;4998398;28;20082;-60
2021/04/17 09:46:22;;;;;;;5.85;3.92;;;;;;;;;;4997485;28;20165;-62
2021/04/17 09:48:48;;;;;;;7.57;3.95;;;;;;;;;;4987147;28;20034;-57
2021/04/17 09:51:26;;;;;;;7.05;4.10;;;;;;;;;;4994299;28;20625;-58
2021/04/17 09:53:53;;;;;;;5.55;3.50;;;;;;;;;;4997587;28;20030;-59
2021/04/17 09:56:29;;;;;;;6.68;3.55;;;;;;;;;;5010905;28;20416;-60
2021/04/17 09:58:56;;;;;;;6.13;3.35;;;;;;;;;;4999142;28;20030;-60
2021/04/17 10:01:21;;;;;;;4.53;2.63;;;;;;;;;;4998409;28;20520;-58
2021/04/17 10:03:52;;;;;;;5.45;2.70;;;;;;;;;;5003440;28;20022;-61
2021/04/17 10:06:31;;;;;;;3.80;2.08;;;;;;;;;;5002101;28;20026;-59
2021/04/17 10:09:10;;;;;;;5.55;2.40;;;;;;;;;;5011489;28;20182;-61
2021/04/17 10:11:36;;;;;;;4.90;2.20;;;;;;;;;;4997269;28;20031;-60
2021/04/17 10:14:02;;;;;;;3.40;1.98;;;;;;;;;;4982791;28;20118;-59
2021/04/17 10:16:32;;;;;;;3.72;2.00;;;;;;;;;;4997538;28;20515;-59
2021/04/17 10:18:58;;;;;;;3.85;2.10;;;;;;;;;;4971761;28;20538;-58
2021/04/17 10:21:28;;;;;;;3.17;1.85;;;;;;;;;;4984474;28;20833;-59
2021/04/17 10:24:19;;;;;;;4.05;1.80;;;;;;;;;;5002482;28;20045;-59
2021/04/17 10:26:58;;;;;;;5.28;2.08;;;;;;;;;;4994987;28;20556;-59
2021/04/17 10:29:33;;;;;;;3.83;1.95;;;;;;;;;;4995226;28;20050;-60
2021/04/17 10:32:00;;;;;;;3.58;1.88;;;;;;;;;;4997100;28;20405;-58
2021/04/17 10:34:25;;;;;;;3.67;1.80;;;;;;;;;;4996181;28;20154;-59
2021/04/17 10:37:04;;;;;;;4.35;2.00;;;;;;;;;;4997296;28;20035;-59
2021/04/17 10:39:29;;;;;;;2.90;1.85;;;;;;;;;;4997218;28;20090;-59
2021/04/17 10:42:00;;;;;;;3.67;1.85;;;;;;;;;;4994962;28;20082;-59
2021/04/17 10:44:25;;;;;;;3.67;2.08;;;;;;;;;;4988944;28;20930;-66
2021/04/17 10:46:52;;;;;;;4.40;2.00;;;;;;;;;;4996890;28;20049;-57
2021/04/17 10:49:36;;;;;;;3.80;1.90;;;;;;;;;;4995245;28;20532;-60
2021/04/17 10:52:24;;;;;;;2.88;1.80;;;;;;;;;;4998673;28;20145;-58
2021/04/17 10:54:53;;;;;;;4.07;2.10;;;;;;;;;;4995059;28;20031;-58
2021/04/17 10:57:19;;;;;;;3.55;1.92;;;;;;;;;;4997875;28;20081;-56
2021/04/17 10:59:58;;;;;;;4.10;2.10;;;;;;;;;;4997715;28;20800;-59
2021/04/17 11:02:25;;;;;;;3.70;2.05;;;;;;;;;;4997128;28;20026;-60
2021/04/17 11:04:52;;;;;;;4.63;2.13;;;;;;;;;;4996938;28;20114;-59
2021/04/17 11:07:17;;;;;;;4.78;2.17;;;;;;;;;;4997381;28;20110;-60
2021/04/17 11:09:49;;;;;;;4.13;2.10;;;;;;;;;;4995003;28;20043;-59
2021/04/17 11:12:28;;;;;;;4.07;2.13;;;;;;;;;;4996337;28;20113;-60
2021/04/17 11:15:37;;;;;;;3.95;2.17;;;;;;;;;;4995885;28;20081;-58
2021/04/17 11:18:20;;;;;;;3.42;1.90;;;;;;;;;;4995346;28;20049;-58
2021/04/17 11:20:53;;;;;;;4.00;2.55;;;;;;;;;;4996194;28;20047;-57
2021/04/17 11:23:48;;;;;;;3.25;2.20;;;;;;;;;;4994982;28;20077;-57
2021/04/17 11:26:14;;;;;;;3.88;1.90;;;;;;;;;;4996790;28;20046;-58
2021/04/17 11:28:41;;;;;;;4.68;2.30;;;;;;;;;;4997726;28;20036;-58
2021/04/17 11:31:08;;;;;;;4.68;2.13;;;;;;;;;;4985154;28;20830;-58
2021/04/17 11:33:35;;;;;;;3.47;2.05;;;;;;;;;;4995617;28;20034;-58
2021/04/17 11:36:00;;;;;;;4.75;2.20;;;;;;;;;;4995617;28;20396;-57
2021/04/17 11:38:27;;;;;;;3.75;2.08;;;;;;;;;;4995229;28;20378;-57
2021/04/17 11:40:53;;;;;;;4.35;1.80;;;;;;;;;;4994646;28;20089;-57
2021/04/17 11:43:19;;;;;;;3.58;1.98;;;;;;;;;;4993941;28;20206;-57
2021/04/17 11:45:44;;;;;;;3.08;1.80;;;;;;;;;;5000420;28;20041;-57
2021/04/17 11:48:11;;;;;;;3.38;1.80;;;;;;;;;;4995713;28;20436;-56
2021/04/17 11:50:36;;;;;;;4.70;2.17;;;;;;;;;;4996271;28;20034;-57
2021/04/17 11:53:02;;;;;;;4.72;1.85;;;;;;;;;;4968793;28;20125;-60
2021/04/17 11:55:27;;;;;;;4.18;1.75;;;;;;;;;;4994068;28;20031;-60
2021/04/17 11:57:53;;;;;;;2.17;1.20;;;;;;;;;;4993366;28;20043;-59
2021/04/17 12:00:18;;;;;;;3.40;1.40;;;;;;;;;;4995279;28;20759;-60
2021/04/17 12:02:44;;;;;;;2.05;1.40;;;;;;;;;;4996267;28;20045;-59
2021/04/17 12:05:10;;;;;;;2.88;1.40;;;;;;;;;;4997079;28;20037;-59
2021/04/17 12:07:36;;;;;;;2.63;1.30;;;;;;;;;;4993440;28;20449;-60
2021/04/17 12:10:03;;;;;;;3.05;1.40;;;;;;;;;;4993143;28;20094;-59
2021/04/17 12:12:28;;;;;;;3.22;1.50;;;;;;;;;;4993578;28;20073;-60
2021/04/17 12:14:54;;;;;;;2.13;1.35;;;;;;;;;;5001551;28;20026;-57
2021/04/17 12:17:20;;;;;;;2.53;1.55;;;;;;;;;;4992943;28;20046;-59
2021/04/17 12:19:48;;;;;;;2.20;1.40;;;;;;;;;;4993885;28;20046;-58
2021/04/17 12:22:14;;;;;;;2.58;1.20;;;;;;;;;;4995857;28;20572;-59
2021/04/17 12:24:40;;;;;;;2.05;1.27;;;;;;;;;;4995162;28;20125;-58
2021/04/17 12:27:05;;;;;;;3.72;1.63;;;;;;;;;;4995351;28;20397;-58
2021/04/17 12:29:31;;;;;;;2.67;1.20;;;;;;;;;;4997571;28;20031;-58
2021/04/17 12:31:56;;;;;;;2.55;1.05;;;;;;;;;;5001560;28;20035;-57
2021/04/17 12:34:22;;;;;;;2.65;0.98;;;;;;;;;;4987317;28;20049;-58
2021/04/17 12:36:47;;;;;;;1.67;1.00;;;;;;;;;;5004390;28;20050;-58
2021/04/17 12:39:13;;;;;;;1.70;1.10;;;;;;;;;;5013954;28;20030;-57
2021/04/17 12:41:38;;;;;;;1.35;1.02;;;;;;;;;;5003452;28;20404;-58
2021/04/17 12:44:04;;;;;;;2.10;1.17;;;;;;;;;;4997480;28;20047;-58
2021/04/17 12:46:30;;;;;;;2.10;1.30;;;;;;;;;;4997326;28;20037;-58
2021/04/17 12:48:55;;;;;;;2.55;1.42;;;;;;;;;;4999815;28;20393;-58
2021/04/17 12:51:21;;;;;;;2.08;1.08;;;;;;;;;;5000557;28;20035;-58
2021/04/17 12:53:47;;;;;;;3.28;1.15;;;;;;;;;;4999726;28;20081;-58
2021/04/17 12:56:12;;;;;;;2.97;1.30;;;;;;;;;;4986387;28;20034;-59
2021/04/17 12:58:39;;;;;;;2.33;1.10;;;;;;;;;;4999612;28;20030;-58
2021/04/17 13:01:05;;;;;;;1.67;0.90;;;;;;;;;;4999270;28;20053;-58
2021/04/17 13:03:31;;;;;;;2.78;1.70;;;;;;;;;;5014110;28;20043;-59
2021/04/17 13:05:56;;;;;;;1.83;1.20;;;;;;;;;;4998203;28;20034;-58
2021/04/17 13:08:24;;;;;;;2.58;1.25;;;;;;;;;;4998296;28;20412;-58
2021/04/17 13:10:51;;;;;;;2.10;1.10;;;;;;;;;;4999981;28;20072;-59
2021/04/17 13:13:16;;;;;;;2.08;1.20;;;;;;;;;;5007341;28;20042;-58
2021/04/17 13:15:45;;;;;;;2.17;1.17;;;;;;;;;;5000098;28;20104;-59
2021/04/17 13:18:11;;;;;;;1.50;1.15;;;;;;;;;;4999449;28;20066;-59
2021/04/17 13:20:36;;;;;;;2.50;0.90;;;;;;;;;;4999000;28;20038;-58
2021/04/17 13:23:02;;;;;;;1.73;0.90;;;;;;;;;;4997338;28;20040;-59
2021/04/17 13:25:27;;;;;;;2.08;0.70;;;;;;;;;;5014886;28;20579;-59
2021/04/17 13:27:54;;;;;;;2.17;1.05;;;;;;;;;;4999515;28;20039;-58
2021/04/17 13:30:20;;;;;;;1.60;0.85;;;;;;;;;;4999655;28;20086;-58
2021/04/17 13:32:47;;;;;;;1.65;0.90;;;;;;;;;;4998470;28;20149;-58
2021/04/17 13:35:12;;;;;;;1.92;1.08;;;;;;;;;;4998431;28;20039;-58
2021/04/17 13:37:38;;;;;;;2.00;1.02;;;;;;;;;;4999407;28;20062;-58
2021/04/17 13:40:07;;;;;;;2.25;1.15;;;;;;;;;;4997774;28;20038;-59
2021/04/17 13:42:34;;;;;;;2.00;1.00;;;;;;;;;;5013168;28;20038;-59
2021/04/17 13:44:59;;;;;;;1.80;1.05;;;;;;;;;;5013350;28;20066;-60
2021/04/17 13:47:25;;;;;;;2.53;1.15;;;;;;;;;;4998109;28;20032;-58
2021/04/17 13:49:50;;;;;;;1.30;0.82;;;;;;;;;;5012152;28;20057;-59
2021/04/17 13:52:16;;;;;;;1.95;1.08;;;;;;;;;;4997157;28;20037;-58
2021/04/17 13:54:41;;;;;;;2.78;1.30;;;;;;;;;;4999242;28;20107;-58
2021/04/17 13:57:07;;;;;;;1.90;0.90;;;;;;;;;;4998342;28;20089;-58
2021/04/17 13:59:34;;;;;;;1.13;0.90;;;;;;;;;;4999247;28;20041;-58
2021/04/17 14:02:00;;;;;;;2.13;1.15;;;;;;;;;;4998829;28;20045;-58
2021/04/17 14:04:26;;;;;;;1.52;1.20;;;;;;;;;;4998499;28;20221;-57
2021/04/17 14:06:51;;;;;;;2.72;1.20;;;;;;;;;;4994534;28;20096;-59
2021/04/17 14:09:17;;;;;;;2.40;1.25;;;;;;;;;;4999017;28;20595;-58
2021/04/17 14:11:42;;;;;;;1.80;0.98;;;;;;;;;;4998419;28;20022;-59
2021/04/17 14:14:08;;;;;;;1.95;1.20;;;;;;;;;;4997437;28;20530;-60
2021/04/17 14:16:33;;;;;;;2.67;1.30;;;;;;;;;;4998529;28;20043;-59
2021/04/17 14:18:59;;;;;;;2.42;1.30;;;;;;;;;;4997949;28;20034;-59
2021/04/17 14:21:24;;;;;;;2.40;1.13;;;;;;;;;;4997241;28;20034;-60
2021/04/17 14:23:50;;;;;;;1.45;1.05;;;;;;;;;;4996597;28;20026;-58
2021/04/17 14:26:19;;;;;;;2.15;1.10;;;;;;;;;;4998816;28;20613;-58
2021/04/17 14:28:45;;;;;;;1.88;1.00;;;;;;;;;;4997792;28;20614;-59
2021/04/17 14:31:11;;;;;;;2.78;1.40;;;;;;;;;;4998336;28;20038;-60
2021/04/17 14:33:37;;;;;;;2.55;1.23;;;;;;;;;;4998415;28;20046;-60
2021/04/17 14:36:02;;;;;;;1.60;1.08;;;;;;;;;;4996627;28;20412;-59
2021/04/17 14:38:28;;;;;;;2.65;1.23;;;;;;;;;;5003269;28;20493;-60
2021/04/17 14:40:53;;;;;;;2.72;1.40;;;;;;;;;;4995758;28;20100;-60
2021/04/17 14:43:21;;;;;;;1.75;1.17;;;;;;;;;;5001801;28;20038;-59
2021/04/17 14:45:46;;;;;;;2.25;1.20;;;;;;;;;;4996218;28;20026;-59